createdAt,value
2018-03-04T00:01:22.317Z,-1.36
2018-03-04T00:03:50.714Z,-1.70
2018-03-04T00:06:19.242Z,-1.71
2018-03-04T00:08:48.350Z,-1.65
2018-03-04T00:11:18.338Z,-1.44
2018-03-04T00:13:46.839Z,-1.56
2018-03-04T00:16:16.569Z,-1.79
2018-03-04T00:18:45.386Z,-1.68
2018-03-04T00:21:14.937Z,-1.81
2018-03-04T00:23:44.668Z,-1.49
2018-03-04T00:26:13.271Z,-1.55
2018-03-04T00:28:43.491Z,-1.38
2018-03-04T00:31:11.893Z,-1.38
2018-03-04T00:33:40.331Z,-1.44
2018-03-04T00:36:08.765Z,-1.32
2018-03-04T00:38:39.179Z,-1.48
2018-03-04T00:41:08.110Z,-1.40
2018-03-04T00:43:37.528Z,-1.65
2018-03-04T00:46:06.272Z,-1.79
2018-03-04T00:48:37.262Z,-1.49
2018-03-04T00:51:05.777Z,-1.54
2018-03-04T00:53:34.988Z,-1.66
2018-03-04T00:56:04.755Z,-2.28
2018-03-04T00:58:34.463Z,-2.35
2018-03-04T01:01:03.123Z,-2.18
2018-03-04T01:03:32.978Z,-2.44
2018-03-04T01:06:01.488Z,-1.99
2018-03-04T01:08:30.117Z,-2.44
2018-03-04T01:10:59.721Z,-2.14
2018-03-04T01:13:28.787Z,-2.11
2018-03-04T01:15:57.528Z,-2.05
2018-03-04T01:18:28.305Z,-2.77
2018-03-04T01:20:58.876Z,-2.69
2018-03-04T01:23:27.298Z,-2.68
2018-03-04T01:25:56.657Z,-2.43
2018-03-04T01:28:25.608Z,-2.30
2018-03-04T01:30:55.041Z,-2.22
2018-03-04T01:33:24.818Z,-2.32
2018-03-04T01:35:53.355Z,-2.13
2018-03-04T01:38:24.395Z,-2.08
2018-03-04T01:40:53.454Z,-2.17
2018-03-04T01:43:23.121Z,-2.32
2018-03-04T01:45:53.204Z,-2.60
2018-03-04T01:48:21.838Z,-2.41
2018-03-04T01:50:53.093Z,-2.14
2018-03-04T01:53:24.188Z,-2.00
2018-03-04T01:55:53.033Z,-2.19
2018-03-04T01:58:23.152Z,-2.47
2018-03-04T02:00:52.242Z,-2.23
2018-03-04T02:03:21.139Z,-2.40
2018-03-04T02:05:51.833Z,-2.14
2018-03-04T02:08:20.448Z,-2.02
2018-03-04T02:10:49.091Z,-2.56
2018-03-04T02:13:19.005Z,-2.54
2018-03-04T02:15:47.973Z,-2.15
2018-03-04T02:18:18.679Z,-2.41
2018-03-04T02:20:47.332Z,-2.74
2018-03-04T02:23:16.905Z,-2.79
2018-03-04T02:25:46.214Z,-2.14
2018-03-04T02:28:15.064Z,-1.96
2018-03-04T02:30:43.896Z,-2.28
2018-03-04T02:33:12.652Z,-2.57
2018-03-04T02:35:41.479Z,-2.49
2018-03-04T02:38:10.264Z,-2.59
2018-03-04T02:40:38.986Z,-2.86
2018-03-04T02:43:08.729Z,-3.09
2018-03-04T02:45:38.873Z,-2.67
2018-03-04T02:48:07.850Z,-2.34
2018-03-04T02:50:37.083Z,-2.67
2018-03-04T02:53:05.609Z,-2.50
2018-03-04T02:55:34.929Z,-2.31
2018-03-04T02:58:03.507Z,-2.17
2018-03-04T03:00:32.521Z,-2.15
2018-03-04T03:03:01.294Z,-2.78
2018-03-04T03:05:29.744Z,-2.67
2018-03-04T03:07:58.704Z,-2.68
2018-03-04T03:10:27.530Z,-2.75
2018-03-04T03:12:55.931Z,-2.76
2018-03-04T03:15:25.988Z,-2.74
2018-03-04T03:17:54.900Z,-2.53
2018-03-04T03:20:24.075Z,-2.58
2018-03-04T03:22:52.930Z,-2.68
2018-03-04T03:25:21.803Z,-2.59
2018-03-04T03:27:50.827Z,-2.57
2018-03-04T03:30:19.687Z,-2.69
2018-03-04T03:32:49.510Z,-2.78
2018-03-04T03:35:19.103Z,-2.87
2018-03-04T03:37:48.037Z,-2.38
2018-03-04T03:40:20.078Z,-2.55
2018-03-04T03:42:48.897Z,-2.91
2018-03-04T03:45:19.604Z,-2.63
2018-03-04T03:47:48.145Z,-2.45
2018-03-04T03:50:17.413Z,-2.81
2018-03-04T03:52:46.619Z,-2.83
2018-03-04T03:55:16.297Z,-3.06
2018-03-04T03:57:46.017Z,-3.00
2018-03-04T04:00:14.574Z,-2.68
2018-03-04T04:02:45.553Z,-2.59
2018-03-04T04:05:16.149Z,-2.81
2018-03-04T04:07:44.932Z,-2.78
2018-03-04T04:10:14.887Z,-2.45
2018-03-04T04:12:44.072Z,-2.74
2018-03-04T04:15:13.804Z,-2.83
2018-03-04T04:17:43.697Z,-2.91
2018-03-04T04:20:12.126Z,-2.59
2018-03-04T04:22:42.509Z,-2.82
2018-03-04T04:25:11.113Z,-2.92
2018-03-04T04:27:41.445Z,-2.53
2018-03-04T04:30:11.811Z,-2.32
2018-03-04T04:32:40.837Z,-2.29
2018-03-04T04:35:10.680Z,-2.29
2018-03-04T04:37:39.646Z,-2.15
2018-03-04T04:40:09.052Z,-2.04
2018-03-04T04:42:38.579Z,-2.29
2018-03-04T04:45:06.986Z,-2.11
2018-03-04T04:47:36.329Z,-2.00
2018-03-04T04:50:05.157Z,-2.25
2018-03-04T04:52:37.819Z,-2.53
2018-03-04T04:55:07.707Z,-2.54
2018-03-04T04:57:36.256Z,-2.85
2018-03-04T05:00:05.105Z,-2.57
2018-03-04T05:02:33.712Z,-2.80
2018-03-04T05:05:02.417Z,-2.72
2018-03-04T05:07:33.203Z,-2.69
2018-03-04T05:10:01.859Z,-2.78
2018-03-04T05:12:31.168Z,-2.77
2018-03-04T05:15:00.494Z,-2.43
2018-03-04T05:17:28.924Z,-2.99
2018-03-04T05:19:58.404Z,-3.05
2018-03-04T05:22:27.224Z,-3.15
2018-03-04T05:24:56.368Z,-2.99
2018-03-04T05:27:24.907Z,-2.68
2018-03-04T05:29:54.270Z,-2.66
2018-03-04T05:32:24.623Z,-2.77
2018-03-04T05:34:53.448Z,-2.49
2018-03-04T05:37:22.305Z,-2.88
2018-03-04T05:39:51.098Z,-2.47
2018-03-04T05:42:19.900Z,-2.98
2018-03-04T05:44:49.625Z,-3.07
2018-03-04T05:47:18.396Z,-3.26
2018-03-04T05:49:47.817Z,-2.80
2018-03-04T05:52:16.660Z,-2.59
2018-03-04T05:54:45.358Z,-2.91
2018-03-04T05:57:15.901Z,-3.21
2018-03-04T05:59:44.980Z,-3.02
2018-03-04T06:02:13.869Z,-3.04
2018-03-04T06:04:42.431Z,-2.95
2018-03-04T06:07:12.949Z,-2.65
2018-03-04T06:09:41.646Z,-3.33
2018-03-04T06:12:10.317Z,-2.78
2018-03-04T06:14:40.604Z,-2.67
2018-03-04T06:17:10.878Z,-2.19
2018-03-04T06:19:39.824Z,-1.85
2018-03-04T06:22:09.243Z,-2.23
2018-03-04T06:24:38.468Z,-1.86
2018-03-04T06:27:06.886Z,-1.37
2018-03-04T06:29:35.783Z,-0.67
2018-03-04T06:32:04.977Z,-0.72
2018-03-04T06:34:35.217Z,-0.21
2018-03-04T06:37:04.025Z,0.67
2018-03-04T06:39:33.255Z,0.69
2018-03-04T06:42:03.930Z,0.88
2018-03-04T06:44:32.455Z,1.29
2018-03-04T06:47:01.236Z,0.50
2018-03-04T06:49:29.644Z,0.78
2018-03-04T06:51:59.027Z,0.47
2018-03-04T06:54:27.520Z,1.11
2018-03-04T06:56:57.716Z,2.23
2018-03-04T06:59:26.353Z,1.97
2018-03-04T07:01:54.825Z,2.47
2018-03-04T07:04:23.632Z,2.51
2018-03-04T07:06:52.239Z,2.93
2018-03-04T07:09:22.993Z,3.39
2018-03-04T07:11:52.078Z,3.75
2018-03-04T07:14:22.340Z,4.31
2018-03-04T07:16:51.397Z,4.96
2018-03-04T07:19:20.642Z,4.66
2018-03-04T07:21:51.568Z,5.62
2018-03-04T07:24:20.064Z,5.98
2018-03-04T07:26:49.228Z,5.21
2018-03-04T07:29:18.925Z,4.58
2018-03-04T07:31:47.422Z,4.45
2018-03-04T07:34:16.016Z,3.70
2018-03-04T07:36:45.751Z,3.83
2018-03-04T07:39:16.288Z,3.71
2018-03-04T07:41:45.202Z,4.00
2018-03-04T07:44:14.164Z,4.24
2018-03-04T07:46:45.013Z,5.31
2018-03-04T07:49:14.399Z,6.18
2018-03-04T07:51:44.055Z,7.85
2018-03-04T07:54:13.851Z,7.91
2018-03-04T07:56:42.728Z,8.39
2018-03-04T07:59:11.476Z,7.29
2018-03-04T08:01:46.162Z,6.41
2018-03-04T08:04:14.941Z,4.99
2018-03-04T08:06:43.715Z,4.04
2018-03-04T08:09:12.676Z,4.79
2018-03-04T08:11:42.831Z,4.70
2018-03-04T08:14:12.870Z,5.31
2018-03-04T08:16:41.814Z,5.01
2018-03-04T08:19:11.078Z,3.94
2018-03-04T08:21:41.004Z,4.05
2018-03-04T08:24:09.861Z,4.50
2018-03-04T08:26:56.282Z,3.78
2018-03-04T08:29:25.318Z,3.81
2018-03-04T08:31:53.833Z,5.09
2018-03-04T08:34:22.360Z,5.94
2018-03-04T08:36:52.607Z,6.09
2018-03-04T08:39:22.150Z,6.44
2018-03-04T08:41:51.764Z,6.35
2018-03-04T08:44:20.911Z,6.26
2018-03-04T08:46:51.271Z,7.02
2018-03-04T08:49:19.895Z,7.34
2018-03-04T08:51:49.976Z,7.57
2018-03-04T08:54:19.271Z,7.92
2018-03-04T08:56:49.265Z,7.78
2018-03-04T08:59:17.738Z,6.86
2018-03-04T09:01:46.239Z,6.88
2018-03-04T09:04:14.697Z,6.81
2018-03-04T09:06:43.179Z,5.88
2018-03-04T09:09:11.806Z,6.07
2018-03-04T09:11:40.654Z,6.03
2018-03-04T09:14:09.211Z,6.86
2018-03-04T09:16:37.655Z,6.87
2018-03-04T09:19:06.096Z,7.69
2018-03-04T09:21:35.080Z,8.29
2018-03-04T09:24:03.708Z,8.94
2018-03-04T09:26:32.164Z,8.28
2018-03-04T09:29:00.727Z,7.95
2018-03-04T09:31:29.260Z,8.25
2018-03-04T09:33:58.204Z,8.75
2018-03-04T09:36:26.692Z,10.30
2018-03-04T09:38:55.181Z,11.42
2018-03-04T09:41:23.632Z,11.24
2018-03-04T09:43:52.115Z,11.80
2018-03-04T09:46:20.614Z,11.86
2018-03-04T09:48:49.049Z,10.60
2018-03-04T09:51:17.891Z,10.06
2018-03-04T09:53:46.332Z,9.75
2018-03-04T09:56:14.838Z,9.48
2018-03-04T09:58:43.292Z,9.89
2018-03-04T10:01:11.748Z,10.33
2018-03-04T10:03:40.666Z,11.16
2018-03-04T10:06:09.167Z,11.45
2018-03-04T10:08:37.620Z,11.15
2018-03-04T10:11:06.585Z,11.00
2018-03-04T10:13:35.129Z,10.96
2018-03-04T10:16:03.612Z,11.19
2018-03-04T10:18:32.078Z,10.00
2018-03-04T10:21:01.004Z,9.89
2018-03-04T10:23:29.855Z,10.39
2018-03-04T10:25:58.314Z,10.25
2018-03-04T10:28:27.212Z,10.37
2018-03-04T10:30:56.057Z,10.06
2018-03-04T10:33:24.496Z,9.89
2018-03-04T10:35:52.994Z,10.25
2018-03-04T10:38:21.435Z,10.02
2018-03-04T10:40:50.297Z,9.75
2018-03-04T10:43:18.737Z,10.55
2018-03-04T10:45:47.222Z,10.86
2018-03-04T10:48:15.669Z,10.91
2018-03-04T10:50:44.517Z,10.70
2018-03-04T10:53:12.960Z,10.33
2018-03-04T10:55:41.477Z,10.23
2018-03-04T10:58:09.936Z,10.45
2018-03-04T11:00:44.028Z,10.74
2018-03-04T11:03:18.867Z,10.41
2018-03-04T11:05:47.384Z,10.28
2018-03-04T11:08:15.860Z,11.08
2018-03-04T11:10:44.319Z,10.76
2018-03-04T11:13:12.779Z,11.34
2018-03-04T11:15:41.222Z,12.06
2018-03-04T11:18:09.665Z,11.10
2018-03-04T11:20:38.189Z,10.47
2018-03-04T11:23:06.636Z,9.81
2018-03-04T11:25:35.072Z,9.28
2018-03-04T11:28:03.996Z,9.38
2018-03-04T11:30:32.448Z,9.53
2018-03-04T11:33:01.299Z,8.91
2018-03-04T11:35:29.745Z,8.83
2018-03-04T11:37:58.192Z,8.38
2018-03-04T11:40:27.029Z,8.35
2018-03-04T11:42:55.558Z,8.01
2018-03-04T11:45:24.085Z,7.81
2018-03-04T11:47:52.520Z,7.61
2018-03-04T11:50:21.390Z,7.26
2018-03-04T11:52:49.849Z,7.55
2018-03-04T11:55:18.326Z,6.54
2018-03-04T11:57:46.757Z,7.25
2018-03-04T12:00:15.695Z,7.72
2018-03-04T12:02:44.183Z,7.21
2018-03-04T12:05:12.628Z,6.88
2018-03-04T12:07:41.136Z,7.16
2018-03-04T12:10:09.617Z,7.02
2018-03-04T12:12:38.134Z,7.10
2018-03-04T12:15:06.580Z,6.81
2018-03-04T12:17:35.061Z,6.25
2018-03-04T12:20:03.520Z,6.84
2018-03-04T12:22:31.951Z,7.01
2018-03-04T12:25:00.390Z,7.40
2018-03-04T12:27:28.893Z,7.29
2018-03-04T12:29:57.333Z,7.36
2018-03-04T12:32:26.165Z,7.34
2018-03-04T12:34:54.609Z,7.24
2018-03-04T12:37:23.116Z,7.51
2018-03-04T12:39:51.551Z,7.14
2018-03-04T12:42:20.481Z,7.70
2018-03-04T12:44:49.839Z,7.36
2018-03-04T12:47:18.540Z,7.30
2018-03-04T12:49:47.004Z,6.82
2018-03-04T12:52:15.519Z,6.97
2018-03-04T12:54:44.025Z,7.18
2018-03-04T12:57:12.514Z,7.03
2018-03-04T12:59:40.948Z,7.14
2018-03-04T13:02:09.884Z,7.73
2018-03-04T13:04:38.357Z,7.55
2018-03-04T13:07:06.808Z,7.41
2018-03-04T13:09:35.243Z,7.47
2018-03-04T13:12:03.734Z,7.71
2018-03-04T13:14:32.177Z,7.23
2018-03-04T13:17:00.607Z,7.37
2018-03-04T13:19:29.046Z,7.34
2018-03-04T13:21:57.511Z,7.48
2018-03-04T13:24:25.981Z,7.98
2018-03-04T13:26:54.480Z,7.87
2018-03-04T13:29:22.972Z,7.77
2018-03-04T13:31:51.432Z,7.82
2018-03-04T13:34:19.879Z,8.00
2018-03-04T13:36:48.803Z,7.79
2018-03-04T13:39:17.297Z,7.14
2018-03-04T13:41:45.774Z,7.30
2018-03-04T13:44:14.208Z,7.64
2018-03-04T13:46:43.060Z,7.61
2018-03-04T13:49:11.531Z,7.88
2018-03-04T13:51:40.011Z,7.74
2018-03-04T13:54:08.492Z,7.91
2018-03-04T13:56:36.984Z,7.79
2018-03-04T13:59:05.412Z,7.90
2018-03-04T14:01:34.249Z,7.52
2018-03-04T14:04:02.700Z,7.69
2018-03-04T14:06:31.210Z,8.17
2018-03-04T14:08:59.669Z,8.60
2018-03-04T14:11:28.134Z,8.39
2018-03-04T14:13:56.995Z,8.63
2018-03-04T14:16:25.494Z,8.82
2018-03-04T14:18:54.333Z,8.66
2018-03-04T14:21:22.776Z,8.63
2018-03-04T14:23:51.629Z,7.94
2018-03-04T14:26:20.080Z,8.14
2018-03-04T14:28:48.564Z,7.93
2018-03-04T14:31:17.017Z,7.92
2018-03-04T14:33:45.478Z,8.39
2018-03-04T14:36:14.425Z,8.66
2018-03-04T14:38:42.901Z,8.96
2018-03-04T14:41:12.245Z,8.71
2018-03-04T14:43:40.768Z,8.61
2018-03-04T14:46:09.295Z,8.25
2018-03-04T14:48:37.712Z,8.27
2018-03-04T14:51:06.221Z,8.40
2018-03-04T14:53:34.672Z,8.26
2018-03-04T14:56:03.121Z,8.04
2018-03-04T14:58:31.564Z,8.55
2018-03-04T15:01:00.020Z,8.21
2018-03-04T15:03:28.538Z,7.90
2018-03-04T15:05:56.975Z,8.13
2018-03-04T15:08:25.811Z,8.54
2018-03-04T15:10:54.256Z,8.18
2018-03-04T15:13:22.728Z,8.16
2018-03-04T15:15:51.544Z,8.43
2018-03-04T15:18:20.057Z,8.27
2018-03-04T15:20:48.509Z,8.20
2018-03-04T15:23:16.989Z,8.18
2018-03-04T15:25:45.419Z,8.19
2018-03-04T15:28:13.848Z,8.63
2018-03-04T15:30:43.045Z,8.48
2018-03-04T15:33:11.896Z,8.00
2018-03-04T15:35:40.742Z,7.70
2018-03-04T15:38:09.229Z,8.13
2018-03-04T15:40:37.677Z,8.16
2018-03-04T15:43:06.108Z,7.90
2018-03-04T15:45:34.551Z,8.14
2018-03-04T15:48:02.990Z,8.18
2018-03-04T15:50:31.923Z,8.21
2018-03-04T15:53:00.440Z,7.91
2018-03-04T15:55:29.304Z,7.90
2018-03-04T15:57:57.817Z,8.02
2018-03-04T16:00:26.260Z,8.21
2018-03-04T16:02:54.719Z,8.27
2018-03-04T16:05:23.191Z,8.53
2018-03-04T16:07:51.632Z,8.05
2018-03-04T16:10:20.103Z,8.09
2018-03-04T16:12:48.542Z,7.88
2018-03-04T16:15:17.048Z,8.17
2018-03-04T16:17:45.481Z,8.05
2018-03-04T16:20:13.948Z,7.70
2018-03-04T16:22:42.373Z,7.99
2018-03-04T16:25:11.404Z,8.14
2018-03-04T16:27:39.846Z,7.79
2018-03-04T16:30:08.307Z,7.71
2018-03-04T16:32:36.745Z,7.56
2018-03-04T16:35:05.198Z,7.72
2018-03-04T16:37:33.956Z,7.37
2018-03-04T16:40:02.457Z,7.71
2018-03-04T16:42:30.911Z,7.71
2018-03-04T16:44:59.768Z,7.52
2018-03-04T16:47:28.325Z,7.51
2018-03-04T16:49:56.759Z,7.14
2018-03-04T16:52:25.705Z,7.00
2018-03-04T16:54:54.177Z,7.19
2018-03-04T16:57:22.621Z,6.99
2018-03-04T16:59:51.081Z,7.03
2018-03-04T17:02:19.643Z,7.42
2018-03-04T17:04:48.138Z,7.44
2018-03-04T17:07:16.676Z,7.18
2018-03-04T17:09:45.174Z,7.19
2018-03-04T17:12:13.784Z,7.42
2018-03-04T17:14:42.226Z,6.99
2018-03-04T17:17:10.673Z,6.51
2018-03-04T17:19:40.110Z,6.63
2018-03-04T17:22:08.577Z,6.64
2018-03-04T17:24:37.177Z,6.21
2018-03-04T17:27:05.659Z,6.81
2018-03-04T17:29:34.110Z,6.83
2018-03-04T17:32:02.645Z,6.70
2018-03-04T17:34:31.097Z,7.04
2018-03-04T17:36:59.614Z,6.47
2018-03-04T17:39:28.056Z,6.57
2018-03-04T17:41:56.503Z,6.90
2018-03-04T17:44:25.339Z,6.46
2018-03-04T17:46:53.920Z,6.63
2018-03-04T17:49:22.377Z,6.33
2018-03-04T17:51:50.873Z,6.41
2018-03-04T17:54:19.325Z,6.55
2018-03-04T17:56:48.269Z,6.15
2018-03-04T17:59:16.712Z,5.89
2018-03-04T18:01:45.216Z,6.12
2018-03-04T18:04:13.652Z,6.40
2018-03-04T18:06:42.600Z,6.16
2018-03-04T18:09:11.040Z,6.15
2018-03-04T18:11:39.543Z,5.80
2018-03-04T18:14:07.990Z,5.82
2018-03-04T18:16:36.824Z,5.73
2018-03-04T18:19:05.303Z,5.34
2018-03-04T18:21:33.800Z,5.20
2018-03-04T18:24:02.678Z,5.26
2018-03-04T18:26:31.120Z,5.21
2018-03-04T18:28:59.636Z,5.13
2018-03-04T18:31:28.112Z,5.17
2018-03-04T18:33:56.585Z,5.58
2018-03-04T18:36:25.053Z,5.52
2018-03-04T18:38:53.558Z,5.54
2018-03-04T18:41:22.008Z,5.58
2018-03-04T18:43:50.470Z,5.53
2018-03-04T18:46:19.312Z,5.24
2018-03-04T18:48:47.757Z,5.20
2018-03-04T18:51:16.683Z,5.27
2018-03-04T18:53:45.745Z,5.47
2018-03-04T18:56:14.575Z,5.36
2018-03-04T18:58:43.053Z,5.05
2018-03-04T19:01:11.501Z,4.62
2018-03-04T19:03:39.941Z,4.98
2018-03-04T19:06:08.836Z,4.89
2018-03-04T19:08:37.399Z,4.78
2018-03-04T19:11:05.858Z,5.03
2018-03-04T19:13:34.301Z,4.57
2018-03-04T19:16:03.266Z,5.06
2018-03-04T19:18:32.185Z,4.76
2018-03-04T19:21:01.092Z,4.74
2018-03-04T19:23:29.613Z,4.96
2018-03-04T19:25:58.070Z,4.98
2018-03-04T19:28:26.522Z,4.60
2018-03-04T19:30:55.016Z,4.46
2018-03-04T19:33:23.475Z,4.42
2018-03-04T19:35:52.406Z,4.45
2018-03-04T19:38:20.845Z,4.36
2018-03-04T19:40:49.893Z,4.40
2018-03-04T19:43:18.337Z,4.30
2018-03-04T19:45:46.855Z,4.73
2018-03-04T19:48:15.333Z,4.87
2018-03-04T19:50:43.789Z,4.71
2018-03-04T19:53:12.236Z,4.29
2018-03-04T19:55:41.593Z,4.50
2018-03-04T19:58:10.504Z,4.65
2018-03-04T20:00:39.507Z,4.63
2018-03-04T20:03:08.661Z,4.27
2018-03-04T20:05:37.125Z,4.72
2018-03-04T20:08:05.645Z,4.44
2018-03-04T20:10:34.101Z,4.56
2018-03-04T20:13:02.554Z,4.44
2018-03-04T20:15:31.413Z,4.13
2018-03-04T20:17:59.851Z,4.29
2018-03-04T20:20:28.386Z,4.21
2018-03-04T20:22:56.939Z,4.26
2018-03-04T20:25:25.396Z,3.99
2018-03-04T20:27:54.810Z,3.96
2018-03-04T20:30:23.306Z,4.00
2018-03-04T20:32:51.783Z,3.90
2018-03-04T20:35:20.232Z,3.76
2018-03-04T20:37:48.677Z,3.88
2018-03-04T20:40:17.120Z,3.75
2018-03-04T20:42:45.570Z,3.88
2018-03-04T20:45:14.421Z,4.15
2018-03-04T20:47:42.869Z,4.01
2018-03-04T20:50:11.351Z,4.42
2018-03-04T20:52:39.788Z,4.49
2018-03-04T20:55:08.749Z,4.30
2018-03-04T20:57:37.209Z,4.49
2018-03-04T21:00:05.691Z,4.33
2018-03-04T21:02:35.067Z,4.23
2018-03-04T21:05:04.020Z,3.93
2018-03-04T21:07:33.313Z,3.95
2018-03-04T21:10:03.396Z,4.18
2018-03-04T21:12:32.232Z,4.07
2018-03-04T21:15:00.847Z,4.07
2018-03-04T21:17:29.375Z,4.36
2018-03-04T21:19:58.957Z,4.06
2018-03-04T21:22:27.592Z,3.89
2018-03-04T21:24:56.973Z,4.04
2018-03-04T21:27:27.259Z,3.64
2018-03-04T21:29:58.347Z,3.62
2018-03-04T21:32:26.807Z,3.81
2018-03-04T21:34:55.602Z,3.70
2018-03-04T21:37:24.695Z,3.44
2018-03-04T21:39:53.187Z,3.83
2018-03-04T21:42:21.759Z,3.68
2018-03-04T21:44:50.818Z,4.02
2018-03-04T21:47:20.726Z,4.11
2018-03-04T21:49:49.185Z,4.18
2018-03-04T21:52:18.542Z,4.04
2018-03-04T21:54:47.300Z,3.88
2018-03-04T21:57:15.753Z,4.01
2018-03-04T21:59:44.306Z,3.80
2018-03-04T22:02:13.659Z,4.15
2018-03-04T22:04:42.936Z,3.89
2018-03-04T22:07:11.434Z,3.76
2018-03-04T22:09:40.608Z,3.84
2018-03-04T22:12:09.730Z,3.56
2018-03-04T22:14:39.970Z,3.73
2018-03-04T22:17:09.284Z,4.18
2018-03-04T22:19:37.731Z,3.73
2018-03-04T22:22:06.620Z,4.02
2018-03-04T22:24:35.924Z,3.88
2018-03-04T22:27:05.343Z,3.60
2018-03-04T22:29:35.796Z,3.64
2018-03-04T22:32:05.337Z,3.56
2018-03-04T22:34:35.566Z,3.80
2018-03-04T22:37:04.803Z,3.63
2018-03-04T22:39:34.388Z,3.88
2018-03-04T22:42:03.391Z,3.56
2018-03-04T22:44:32.336Z,3.83
2018-03-04T22:47:01.580Z,3.76
2018-03-04T22:49:31.551Z,4.08
2018-03-04T22:52:00.482Z,3.73
2018-03-04T22:54:30.127Z,3.63
2018-03-04T22:56:58.939Z,3.86
2018-03-04T22:59:27.569Z,3.94
2018-03-04T23:01:56.463Z,3.76
2018-03-04T23:04:26.036Z,3.56
2018-03-04T23:06:55.576Z,3.78
2018-03-04T23:09:25.860Z,3.79
2018-03-04T23:11:54.669Z,4.00
2018-03-04T23:14:23.440Z,3.76
2018-03-04T23:16:53.295Z,3.42
2018-03-04T23:19:23.313Z,3.57
2018-03-04T23:21:53.585Z,3.62
2018-03-04T23:24:22.284Z,3.77
2018-03-04T23:26:52.368Z,3.64
2018-03-04T23:29:24.041Z,3.68
2018-03-04T23:31:52.615Z,3.67
2018-03-04T23:34:22.913Z,3.53
2018-03-04T23:36:51.988Z,3.75
2018-03-04T23:39:22.030Z,3.51
2018-03-04T23:41:52.298Z,3.43
2018-03-04T23:44:20.757Z,3.41
2018-03-04T23:46:50.559Z,3.64
2018-03-04T23:49:19.855Z,3.80
2018-03-04T23:51:48.680Z,3.61
2018-03-04T23:54:17.187Z,3.46
2018-03-04T23:56:46.716Z,3.44
2018-03-04T23:59:15.459Z,3.25
